Weather at Mount Athos Health Center Heliport

Public forecast

Using degrees Celsius for public forecast. Weather courtesy of forecast.io.

Closest aviation weather report (METAR) to Mount Athos Health Center Heliport

Closest report is Kavala Alexander the Great International Airport, 42.8 nm (79.2 km) NNE.

2024/07/13 21:50 (retrieved 1 hour ago)

LGKV 132150Z 13004KT 9999 FEW030 26/22 Q1011

Closest aviation forecast (TAF) to Mount Athos Health Center Heliport

Closest forecast is Kavala Alexander the Great International Airport, 42.8 nm (79.2 km) NNE.

2024/07/13 18:12 (retrieved 5 hours ago)

TAF LGKV 131700Z 1318/1418 VRB03KT CAVOK BECMG 1410/1412 22013KT